AirNav  
 
 1410 users online  

21VA Eagles Nest Airport
Cheriton, Virginia, USA

GOING TO CHERITON?


FAA INFORMATION EFFECTIVE 25 MARCH 2021

Location

FAA Identifier: 21VA
Lat/Long: 37-18-11.4970N 075-56-05.7500W
37-18.191617N 075-56.095833W
37.3031936,-75.9349306
(estimated)
Elevation: 40 ft. / 12 m (estimated)
Variation: 10W (1985)
From city: 2 miles NE of CHERITON, VA
Time zone: UTC -4 (UTC -5 during Standard Time)
Zip code: 23310

Airport Operations

Airport use: Private use. Permission required prior to landing
Activation date: 07/1984
Control tower: no
ARTCC: WASHINGTON CENTER
FSS: LEESBURG FLIGHT SERVICE STATION
Attendance: UNATNDD
Wind indicator: yes
Segmented circle: no

Nearby radio navigation aids

VOR radial/distance  VOR name  Freq  Var
CCVr142/4.0CAPE CHARLES VORTAC112.2010W
ORFr034/27.8NORFOLK VORTAC116.9007W
HCMr110/38.0HARCUM VORTAC108.8007W

Airport Services

Runway Information

Runway 1/19

Dimensions: 1800 x 60 ft. / 549 x 18 m
Surface: turf
RUNWAY 1  RUNWAY 19
Traffic pattern: leftleft
Obstructions: nonetrees, 100 ft. from runway
PLINE-M

Airport Ownership and Management from official FAA records

Ownership: Privately-owned
Owner: PETER M LEONTIEFF SR
23041 PARSONS CIR
CAPE CHARLES, VA 23310
Phone 757-678-0004
Manager: PETER M LEONTIEFF SR
23041 PARSONS CIR
CAPE CHARLES, VA 23310
Phone 757-678-0004

Additional Remarks

FOR CD CTC NORFOLK APCH AT 757-464-0757.

Instrument Procedures

There are no published instrument procedures at 21VA.

Some nearby airports with instrument procedures:

KMFV - Accomack County Airport (22 nm N)
KLFI - Langley Air Force Base (24 nm SW)
KORF - Norfolk International Airport (28 nm SW)
KNGU - Norfolk Naval Station (Chambers Field) (28 nm SW)
KPHF - Newport News/Williamsburg International Airport (29 nm W)
 
Loc | Ops | Rwys | IFR | FBO | Links
Com | Nav | Svcs | Stats | Notes
Area around 21VA (Eagles Nest Airport)
 
Road maps at: MapQuest Bing Google
 
Aerial photo
No photo
 
Sectional chart

 
Airport distance calculator
Flying to Eagles Nest Airport? Find the distance to fly.

From to 21VA

Sunrise and sunset
Times for 12-Apr-2021
 Local
(UTC-4)
 Zulu
(UTC)
Morning civil twilight06:0810:08
Sunrise06:3410:34
Sunset19:3523:35
Evening civil twilight20:0200:02

Current date and time
Zulu (UTC)  12-Apr-2021 21:49:58
Local (UTC-4)  12-Apr-2021 17:49:58
 
METAR
KMFV 
21nm N 
122135Z AUTO 10004KT 10SM SCT021 BKN085 OVC110 13/07 A2975 RMK AO2 T01270073
KLFI 
25nm SW 
122056Z 02010KT 9SM BKN070 15/15 A2973 RMK AO2A SLP074 P0001 60001 T01540154 52008 $
KORF 
27nm SW 
122051Z AUTO 05008KT 10SM OVC007 14/12 A2972 RMK AO2 SLP063 T01440122 53007
KNGU 
28nm SW 
122059Z 07007KT 7SM BKN006 14/12 A2974 RMK AO2 SLP070 T01440117 53008 $
KPHF 
29nm W 
122054Z 07008KT 10SM OVC090 15/13 A2973 RMK AO2 RAE02 SLP065 P0000 60000 T01500128 51008
KNTU 
29nm S 
122056Z 06008KT 6SM BR BKN006 OVC060 14/11 A2972 RMK AO2 SLP066 T01440106 53010
KW75 
30nm NW 
122135Z AUTO 04006KT 10SM OVC060 14/12 A2975 RMK AO1 T01420120
KTGI 
32nm N 
122135Z AUTO 35006KT 10SM OVC070 16/11 A2975 RMK AO1 T01610114
KFAF 
34nm W 
122056Z 08007KT 10SM BKN070 17/12 A2969 RMK AO2A SLP057 60001 T01660123 50008 $
KJGG 
37nm W 
122135Z AUTO 00000KT 10SM SCT095 17/14 A2975 RMK AO1
TAF
KLFI 
25nm SW 
121830Z 1218/1323 04006KT 9999 OVC100 QNH2987INS TEMPO 1219/1223 8000 -SHRA BKN080 OVC100 BECMG 1300/1301 VRB06KT 8000 BR BKN002 QNH2979INS BECMG 1306/1307 VRB06KT 9000 BR BKN010 QNH2987INS BECMG 1314/1315 05012KT 9999 NSW BKN020 QNH2987INS BECMG 1318/1319 02009KT 9999 FEW025 SCT050 QNH3005INS TX15/1218Z TN11/1306Z
KORF 
27nm SW 
122017Z 1220/1318 05008KT P6SM SCT008 BKN060 TEMPO 1220/1223 BKN008 FM130000 04007KT P6SM VCSH BKN025 FM130200 02007KT P6SM VCSH OVC015 FM130600 01008KT P6SM OVC007 FM131500 02012G19KT P6SM BKN020
KNGU 
28nm SW 
1219/1315 05008KT 9999 BKN007 QNH2966INS TEMPO 1219/1300 SCT007 BKN020 FM130000 06010G18KT 9999 VCSH FEW020 BKN050 QNH2975INS TEMPO 1300/1303 1600 -SHRA BR BKN010 OVC030 FM130300 04010G15KT 3200 BR BKN006 QNH2981INS TEMPO 1303/1308 1600 -DZ BR OVC005 FM130800 01011G18KT 9999 BKN007 OVC015 QNH2987INS T20/1219Z T12/1309Z AMD 1950 FN20002
KPHF 
29nm W 
121749Z 1218/1318 06008KT P6SM BKN070 FM130000 04007KT P6SM VCSH BKN025 FM130300 03006KT P6SM OVC015 FM130600 01006KT P6SM OVC007 FM131100 01008KT P6SM OVC015 FM131500 01010KT P6SM BKN025
KNTU 
29nm S 
1215/1315 34011KT 9999 SCT010 QNH2964INS TEMPO 1215/1219 01012KT 9999 BKN010 FM121900 34008KT 9999 SCT020 BKN050 QNH2969INS FM130300 02010G15KT 4800 BR VCSH BKN010 QNH2981INS TEMPO 1303/1309 1600 -DZ BR OVC005 FM130900 01010G18KT 9999 BKN005 OVC010 QNH2987INS T20/1219Z T12/1309Z COR 1533Z FN20008
NOTAMs
Click for the latest NOTAMs
NOTAMs are issued by the DoD/FAA and will open in a separate window not controlled by AirNav.

 

 
 

Would you like to see your business listed on this page?

 If your business provides an interesting product or service to pilots, flight crews, aircraft, or users of the Eagles Nest Airport, you should consider listing it here.  To start the listing process, click on the button below
 
Add a business
 

Other Pages about Eagles Nest Airport

Update a link
 
Copyright © AirNav, LLC. All rights reserved. Privacy Policy  Contact